MSC Armonia — H8EW — position and weather

sailwx.info

Track history (hours):
 
Tides and Currents Weather Stations Pressure Air Temp Water Temp Dewpoint Dewpoint Depression Visibility Wind Speed Wind Dir Waves Ship Positions

MSC Armonia

Operator: Mediterranean Shipping Company

Last reported at 2017-May-25 17:10 UTC. Time now 2017-May-26 16:50 UTC.
Position N 38°25' E 015°37'.

Length 275 m; draft 6.8 m.

Type: Ship. MMSI: 357281000.

Date/timePositionNaut miles runAvg speedWind from/ knotsBaromVisibWave heightAir tempDewpointWater temp
2017-May-25 17:10N 38°25' E 015°37'315.8
2017-May-25 16:59N 38°22' E 015°39'714.5
2017-May-25 16:31N 38°16' E 015°42'714.5
2017-May-25 16:00N 38°12' E 015°34'0 0.9
2017-May-25 15:29N 38°12' E 015°33'0 0.0
2017-May-25 14:59N 38°12' E 015°33'0 0.0
2017-May-25 13:58N 38°12' E 015°33'0 0.0
2017-May-25 13:29N 38°12' E 015°33'0 0.0
2017-May-25 12:59N 38°12' E 015°33'0 0.0
2017-May-25 12:29N 38°12' E 015°33'0 0.0
2017-May-25 11:59N 38°12' E 015°33'0 0.0
2017-May-25 11:28N 38°12' E 015°33'0 0.0
2017-May-25 10:59N 38°12' E 015°33'0 0.0
2017-May-25 10:29N 38°12' E 015°33'0 0.0
2017-May-25 09:59N 38°12' E 015°33'0 0.0
2017-May-25 09:29N 38°12' E 015°33'0 0.0
2017-May-25 08:59N 38°12' E 015°33'0 0.0
2017-May-25 08:29N 38°12' E 015°33'0 0.0
2017-May-25 07:59N 38°12' E 015°33'0 0.0
2017-May-25 07:29N 38°12' E 015°33'0 0.0
2017-May-25 06:59N 38°12' E 015°33'0 0.0
2017-May-25 06:29N 38°12' E 015°33'0 0.0
2017-May-25 05:59N 38°12' E 015°33'0 0.0
2017-May-25 05:29N 38°12' E 015°33'1 2.3
2017-May-25 05:00N 38°12' E 015°34'4 8.7
2017-May-25 04:30N 38°08' E 015°36'713.0
2017-May-25 04:00N 38°02' E 015°35'612.4
2017-May-25 03:31N 37°56' E 015°34'713.5
2017-May-25 03:00N 37°49' E 015°35'5714.5
2017-May-24 23:06N 36°53' E 015°26'214.5
2017-May-24 22:57N 36°50' E 015°25'714.5
2017-May-24 22:30N 36°44' E 015°22'714.6
2017-May-24 22:00N 36°38' E 015°19'714.3
2017-May-24 21:30N 36°32' E 015°14'714.4
2017-May-24 21:00N 36°27' E 015°07'714.5
2017-May-24 20:31N 36°22' E 015°01'915.0
2017-May-24 19:56N 36°15' E 014°54'915.2
2017-May-24 19:20N 36°08' E 014°47'515.3
2017-May-24 19:00N 36°04' E 014°43'815.5
2017-May-24 18:30N 35°59' E 014°36'6 0.9
2017-May-24 11:10N 35°54' E 014°31'1 5.2
2017-May-24 11:00N 35°54' E 014°32'714.3
2017-May-24 10:30N 36°01' E 014°29'816.7
2017-May-24 10:00N 36°07' E 014°22'817.0
2017-May-24 09:30N 36°14' E 014°15'817.0
2017-May-24 09:00N 36°20' E 014°08'917.1
2017-May-24 08:30N 36°26' E 014°00'917.1
2017-May-24 07:57N 36°33' E 013°52'27611.1
2017-May-23 07:11N 39°12' E 009°07'0 2.7
2017-May-23 07:00N 39°12' E 009°07'714.1
2017-May-23 06:30N 39°05' E 009°08'714.7
2017-May-23 06:00N 38°58' E 009°05'814.7
2017-May-23 05:28N 38°53' E 008°57'814.8
2017-May-23 04:57N 38°49' E 008°49'914.8
2017-May-23 04:19N 38°48' E 008°37'515.3
2017-May-23 04:00N 38°48' E 008°30'815.5
2017-May-23 03:28N 38°49' E 008°20'916.0
2017-May-23 02:55N 38°52' E 008°09'916.4
2017-May-23 02:24N 38°55' E 007°59'716.4
2017-May-23 01:59N 38°57' E 007°51'916.2
2017-May-23 01:27N 38°59' E 007°40'816.1
2017-May-23 00:58N 39°02' E 007°30'816.0
2017-May-23 00:27N 39°04' E 007°21'716.1
2017-May-23 00:00N 39°07' E 007°12'816.0
2017-May-22 23:30N 39°09' E 007°02'816.0
2017-May-22 22:59N 39°12' E 006°52'815.9
2017-May-22 22:30N 39°15' E 006°42'1015.8
2017-May-22 21:52N 39°18' E 006°30'615.9
2017-May-22 21:30N 39°20' E 006°23'3915.9
2017-May-22 19:04N 39°32' E 005°36'116.0
2017-May-22 19:00N 39°32' E 005°34'815.7
2017-May-22 18:30N 39°35' E 005°25'815.6
2017-May-22 18:00N 39°37' E 005°15'815.4
2017-May-22 17:28N 39°40' E 005°05'715.6
2017-May-22 17:00N 39°42' E 004°56'815.9
2017-May-22 16:30N 39°45' E 004°46'1915.8
2017-May-22 15:18N 39°51' E 004°23'133 6.9
2017-May-21 20:08N 42°02' E 004°53'2016.0
2017-May-21 18:53N 42°21' E 004°58'716.2
2017-May-21 18:27N 42°28' E 004°60'916.1
2017-May-21 17:53N 42°37' E 005°02'916.2
2017-May-21 17:20N 42°46' E 005°04'516.3
2017-May-21 17:00N 42°51' E 005°05'816.3
2017-May-21 16:30N 42°59' E 005°08'816.1
2017-May-21 16:00N 43°07' E 005°10'815.7
2017-May-21 15:30N 43°14' E 005°13'815.0
2017-May-21 15:00N 43°21' E 005°18'0 0.0
2017-May-21 05:35N 43°21' E 005°19'0 2.4
2017-May-21 05:28N 43°21' E 005°19'3 5.5
2017-May-21 05:00N 43°19' E 005°17'4 8.2
2017-May-21 04:30N 43°15' E 005°16'7813.4
2017-May-20 22:43N 43°13' E 007°02'816.8
2017-May-20 22:13N 43°17' E 007°12'416.8
2017-May-20 22:00N 43°18' E 007°17'816.8
2017-May-20 21:30N 43°23' E 007°27'817.0
2017-May-20 21:00N 43°27' E 007°37'917.2
2017-May-20 20:30N 43°31' E 007°47'917.3
2017-May-20 20:00N 43°36' E 007°57'917.4
2017-May-20 19:29N 43°41' E 008°07'817.2
2017-May-20 19:00N 43°47' E 008°15'916.9
2017-May-20 18:30N 43°53' E 008°23'1216.7
2017-May-20 17:47N 44°03' E 008°34'616.5
2017-May-20 17:27N 44°07' E 008°39'816.4
2017-May-20 16:59N 44°13' E 008°46'816.4
2017-May-20 16:30N 44°19' E 008°53'611.1
2017-May-20 16:00N 44°24' E 008°55'1 1.8
2017-May-20 15:29N 44°25' E 008°55'0 0.0
2017-May-20 14:50N 44°25' E 008°55'0 0.0
2017-May-20 14:17N 44°25' E 008°55'0 0.0
2017-May-20 13:20N 44°25' E 008°55'0 0.0
2017-May-20 12:32N 44°25' E 008°55'0 0.0
2017-May-20 11:05N 44°25' E 008°55'0 0.0
2017-May-20 10:50N 44°25' E 008°55'0 0.0
2017-May-20 10:11N 44°25' E 008°55'0 0.0
2017-May-20 09:56N 44°25' E 008°55'0 0.0
2017-May-20 09:23N 44°25' E 008°55'0 0.0
2017-May-20 08:58N 44°25' E 008°55'1 2.0
2017-May-20 08:30N 44°24' E 008°55'612.3
2017-May-20 08:00N 44°18' E 008°60'817.0
2017-May-20 07:30N 44°11' E 009°04'817.0
2017-May-20 07:00N 44°03' E 009°08'816.8
2017-May-20 06:30N 43°55' E 009°12'816.8
2017-May-20 06:00N 43°47' E 009°16'816.7
2017-May-20 05:30N 43°39' E 009°20'816.9
2017-May-20 05:00N 43°31' E 009°24'816.7
2017-May-20 04:30N 43°23' E 009°28'816.3
2017-May-20 04:00N 43°16' E 009°32'2816.2
2017-May-20 02:15N 42°50' E 009°48'1516.5
2017-May-20 01:22N 42°42' E 010°04'1216.6
2017-May-20 00:40N 42°35' E 010°17'317.1
2017-May-20 00:29N 42°33' E 010°21'21210.0
2017-May-19 03:12N 40°30' E 014°11'13214.0
2017-May-18 17:44N 38°33' E 015°32'516.5
2017-May-18 17:27N 38°29' E 015°35'716.5
2017-May-18 17:01N 38°23' E 015°40'1012.4
2017-May-18 16:14N 38°13' E 015°36'3 2.5
2017-May-18 15:10N 38°12' E 015°33'0 0.0
2017-May-18 14:58N 38°12' E 015°33'0 0.0
2017-May-18 13:58N 38°12' E 015°33'0 0.0
2017-May-18 13:28N 38°12' E 015°33'0 0.0
2017-May-18 12:58N 38°12' E 015°33'0 0.0
2017-May-18 12:28N 38°12' E 015°33'0 0.0
2017-May-18 11:58N 38°12' E 015°33'0 0.0
2017-May-18 11:28N 38°12' E 015°33'0 0.0
2017-May-18 10:58N 38°12' E 015°33'0 0.0
2017-May-18 10:28N 38°12' E 015°33'0 0.0
2017-May-18 09:58N 38°12' E 015°33'0 0.0
2017-May-18 09:28N 38°12' E 015°33'0 0.0
2017-May-18 08:58N 38°12' E 015°33'0 0.0
2017-May-18 08:28N 38°12' E 015°33'0 0.0
2017-May-18 07:58N 38°12' E 015°33'0 0.0
2017-May-18 07:28N 38°12' E 015°33'0 0.0
2017-May-18 06:58N 38°12' E 015°33'0 0.0
2017-May-18 06:28N 38°12' E 015°33'0 0.0
2017-May-18 05:58N 38°12' E 015°33'0 0.0
2017-May-18 05:28N 38°12' E 015°33'1 1.5
2017-May-18 05:00N 38°12' E 015°34'4 7.2
2017-May-18 04:30N 38°09' E 015°36'612.8
2017-May-18 04:00N 38°02' E 015°35'713.1
2017-May-18 03:30N 37°56' E 015°35'8213.5
2017-May-17 21:27N 36°35' E 015°16'916.3
2017-May-17 20:55N 36°29' E 015°10'1516.3
2017-May-17 20:01N 36°18' E 014°57'016.7
2017-May-17 20:00N 36°18' E 014°57'816.3
2017-May-17 19:30N 36°12' E 014°51'816.4
2017-May-17 19:00N 36°05' E 014°44'816.2
2017-May-17 18:31N 35°59' E 014°37'7 0.9
2017-May-17 11:00N 35°54' E 014°32'714.4
2017-May-17 10:30N 36°01' E 014°29'816.7
2017-May-17 10:00N 36°07' E 014°22'816.8
2017-May-17 09:31N 36°13' E 014°15'916.9
2017-May-17 09:00N 36°19' E 014°07'916.8
2017-May-17 08:30N 36°26' E 014°00'1116.6
2017-May-17 07:50N 36°34' E 013°51'516.6
2017-May-17 07:30N 36°38' E 013°46'916.9
2017-May-17 06:58N 36°44' E 013°38'25016.6
2017-May-16 15:51N 39°05' E 009°16'615.9
2017-May-16 15:30N 39°08' E 009°10'510.4
2017-May-16 15:00N 39°12' E 009°06'0 0.2
2017-May-16 13:59N 39°12' E 009°06'0 0.0
2017-May-16 13:29N 39°12' E 009°06'0 0.0
2017-May-16 12:59N 39°12' E 009°06'0 0.0
2017-May-16 12:29N 39°12' E 009°06'0 0.0
2017-May-16 11:59N 39°12' E 009°06'0 0.0
2017-May-16 11:29N 39°12' E 009°06'0 0.0
2017-May-16 10:59N 39°12' E 009°06'0 0.0
2017-May-16 10:29N 39°12' E 009°06'0 0.0
2017-May-16 09:59N 39°12' E 009°06'0 0.0
2017-May-16 09:26N 39°12' E 009°06'0 0.0
2017-May-16 08:59N 39°12' E 009°06'0 0.0
2017-May-16 08:29N 39°12' E 009°06'0 0.0
2017-May-16 07:59N 39°12' E 009°06'0 0.0
2017-May-16 07:29N 39°12' E 009°06'5 6.1
2017-May-16 06:37N 39°07' E 009°08'214.4
2017-May-16 06:30N 39°06' E 009°08'714.1
2017-May-16 06:00N 38°59' E 009°06'814.8
2017-May-16 05:29N 38°53' E 008°60'714.6
2017-May-16 05:00N 38°49' E 008°52'  
Track history (hours):
 
Tides and Currents Weather Stations Pressure Air Temp Water Temp Dewpoint Dewpoint Depression Visibility Wind Speed Wind Dir Waves Ship Positions

MSC Armonia

Operator: Mediterranean Shipping Company

Last reported at 2017-May-25 17:10 UTC. Time now 2017-May-26 16:50 UTC.
Position N 38°25' E 015°37'.

Length 275 m; draft 6.8 m.

Type: Ship. MMSI: 357281000.

Date/timePositionNaut miles runAvg speedWind from/ knotsBaromVisibWave heightAir tempDewpointWater temp
2017-May-25 17:10N 38°25' E 015°37'315.8
2017-May-25 16:59N 38°22' E 015°39'714.5
2017-May-25 16:31N 38°16' E 015°42'714.5
2017-May-25 16:00N 38°12' E 015°34'0 0.9
2017-May-25 15:29N 38°12' E 015°33'0 0.0
2017-May-25 14:59N 38°12' E 015°33'0 0.0
2017-May-25 13:58N 38°12' E 015°33'0 0.0
2017-May-25 13:29N 38°12' E 015°33'0 0.0
2017-May-25 12:59N 38°12' E 015°33'0 0.0
2017-May-25 12:29N 38°12' E 015°33'0 0.0
2017-May-25 11:59N 38°12' E 015°33'0 0.0
2017-May-25 11:28N 38°12' E 015°33'0 0.0
2017-May-25 10:59N 38°12' E 015°33'0 0.0
2017-May-25 10:29N 38°12' E 015°33'0 0.0
2017-May-25 09:59N 38°12' E 015°33'0 0.0
2017-May-25 09:29N 38°12' E 015°33'0 0.0
2017-May-25 08:59N 38°12' E 015°33'0 0.0
2017-May-25 08:29N 38°12' E 015°33'0 0.0
2017-May-25 07:59N 38°12' E 015°33'0 0.0
2017-May-25 07:29N 38°12' E 015°33'0 0.0
2017-May-25 06:59N 38°12' E 015°33'0 0.0
2017-May-25 06:29N 38°12' E 015°33'0 0.0
2017-May-25 05:59N 38°12' E 015°33'0 0.0
2017-May-25 05:29N 38°12' E 015°33'1 2.3
2017-May-25 05:00N 38°12' E 015°34'4 8.7
2017-May-25 04:30N 38°08' E 015°36'713.0
2017-May-25 04:00N 38°02' E 015°35'612.4
2017-May-25 03:31N 37°56' E 015°34'713.5
2017-May-25 03:00N 37°49' E 015°35'5714.5
2017-May-24 23:06N 36°53' E 015°26'214.5
2017-May-24 22:57N 36°50' E 015°25'714.5
2017-May-24 22:30N 36°44' E 015°22'714.6
2017-May-24 22:00N 36°38' E 015°19'714.3
2017-May-24 21:30N 36°32' E 015°14'714.4
2017-May-24 21:00N 36°27' E 015°07'714.5
2017-May-24 20:31N 36°22' E 015°01'915.0
2017-May-24 19:56N 36°15' E 014°54'915.2
2017-May-24 19:20N 36°08' E 014°47'515.3
2017-May-24 19:00N 36°04' E 014°43'815.5
2017-May-24 18:30N 35°59' E 014°36'6 0.9
2017-May-24 11:10N 35°54' E 014°31'1 5.2
2017-May-24 11:00N 35°54' E 014°32'714.3
2017-May-24 10:30N 36°01' E 014°29'816.7
2017-May-24 10:00N 36°07' E 014°22'817.0
2017-May-24 09:30N 36°14' E 014°15'817.0
2017-May-24 09:00N 36°20' E 014°08'917.1
2017-May-24 08:30N 36°26' E 014°00'917.1
2017-May-24 07:57N 36°33' E 013°52'27611.1
2017-May-23 07:11N 39°12' E 009°07'0 2.7
2017-May-23 07:00N 39°12' E 009°07'714.1
2017-May-23 06:30N 39°05' E 009°08'714.7
2017-May-23 06:00N 38°58' E 009°05'814.7
2017-May-23 05:28N 38°53' E 008°57'814.8
2017-May-23 04:57N 38°49' E 008°49'914.8
2017-May-23 04:19N 38°48' E 008°37'515.3
2017-May-23 04:00N 38°48' E 008°30'815.5
2017-May-23 03:28N 38°49' E 008°20'916.0
2017-May-23 02:55N 38°52' E 008°09'916.4
2017-May-23 02:24N 38°55' E 007°59'716.4
2017-May-23 01:59N 38°57' E 007°51'916.2
2017-May-23 01:27N 38°59' E 007°40'816.1
2017-May-23 00:58N 39°02' E 007°30'816.0
2017-May-23 00:27N 39°04' E 007°21'716.1
2017-May-23 00:00N 39°07' E 007°12'816.0
2017-May-22 23:30N 39°09' E 007°02'816.0
2017-May-22 22:59N 39°12' E 006°52'815.9
2017-May-22 22:30N 39°15' E 006°42'1015.8
2017-May-22 21:52N 39°18' E 006°30'615.9
2017-May-22 21:30N 39°20' E 006°23'3915.9
2017-May-22 19:04N 39°32' E 005°36'116.0
2017-May-22 19:00N 39°32' E 005°34'815.7
2017-May-22 18:30N 39°35' E 005°25'815.6
2017-May-22 18:00N 39°37' E 005°15'815.4
2017-May-22 17:28N 39°40' E 005°05'715.6
2017-May-22 17:00N 39°42' E 004°56'815.9
2017-May-22 16:30N 39°45' E 004°46'1915.8
2017-May-22 15:18N 39°51' E 004°23'133 6.9
2017-May-21 20:08N 42°02' E 004°53'2016.0
2017-May-21 18:53N 42°21' E 004°58'716.2
2017-May-21 18:27N 42°28' E 004°60'916.1
2017-May-21 17:53N 42°37' E 005°02'916.2
2017-May-21 17:20N 42°46' E 005°04'516.3
2017-May-21 17:00N 42°51' E 005°05'816.3
2017-May-21 16:30N 42°59' E 005°08'816.1
2017-May-21 16:00N 43°07' E 005°10'815.7
2017-May-21 15:30N 43°14' E 005°13'815.0
2017-May-21 15:00N 43°21' E 005°18'0 0.0
2017-May-21 05:35N 43°21' E 005°19'0 2.4
2017-May-21 05:28N 43°21' E 005°19'3 5.5
2017-May-21 05:00N 43°19' E 005°17'4 8.2
2017-May-21 04:30N 43°15' E 005°16'7813.4
2017-May-20 22:43N 43°13' E 007°02'816.8
2017-May-20 22:13N 43°17' E 007°12'416.8
2017-May-20 22:00N 43°18' E 007°17'816.8
2017-May-20 21:30N 43°23' E 007°27'817.0
2017-May-20 21:00N 43°27' E 007°37'917.2
2017-May-20 20:30N 43°31' E 007°47'917.3
2017-May-20 20:00N 43°36' E 007°57'917.4
2017-May-20 19:29N 43°41' E 008°07'817.2
2017-May-20 19:00N 43°47' E 008°15'916.9
2017-May-20 18:30N 43°53' E 008°23'1216.7
2017-May-20 17:47N 44°03' E 008°34'616.5
2017-May-20 17:27N 44°07' E 008°39'816.4
2017-May-20 16:59N 44°13' E 008°46'816.4
2017-May-20 16:30N 44°19' E 008°53'611.1
2017-May-20 16:00N 44°24' E 008°55'1 1.8
2017-May-20 15:29N 44°25' E 008°55'0 0.0
2017-May-20 14:50N 44°25' E 008°55'0 0.0
2017-May-20 14:17N 44°25' E 008°55'0 0.0
2017-May-20 13:20N 44°25' E 008°55'0 0.0
2017-May-20 12:32N 44°25' E 008°55'0 0.0
2017-May-20 11:05N 44°25' E 008°55'0 0.0
2017-May-20 10:50N 44°25' E 008°55'0 0.0
2017-May-20 10:11N 44°25' E 008°55'0 0.0
2017-May-20 09:56N 44°25' E 008°55'0 0.0
2017-May-20 09:23N 44°25' E 008°55'0 0.0
2017-May-20 08:58N 44°25' E 008°55'1 2.0
2017-May-20 08:30N 44°24' E 008°55'612.3
2017-May-20 08:00N 44°18' E 008°60'817.0
2017-May-20 07:30N 44°11' E 009°04'817.0
2017-May-20 07:00N 44°03' E 009°08'816.8
2017-May-20 06:30N 43°55' E 009°12'816.8
2017-May-20 06:00N 43°47' E 009°16'816.7
2017-May-20 05:30N 43°39' E 009°20'816.9
2017-May-20 05:00N 43°31' E 009°24'816.7
2017-May-20 04:30N 43°23' E 009°28'816.3
2017-May-20 04:00N 43°16' E 009°32'2816.2
2017-May-20 02:15N 42°50' E 009°48'1516.5
2017-May-20 01:22N 42°42' E 010°04'1216.6
2017-May-20 00:40N 42°35' E 010°17'317.1
2017-May-20 00:29N 42°33' E 010°21'21210.0
2017-May-19 03:12N 40°30' E 014°11'13214.0
2017-May-18 17:44N 38°33' E 015°32'516.5
2017-May-18 17:27N 38°29' E 015°35'716.5
2017-May-18 17:01N 38°23' E 015°40'1012.4
2017-May-18 16:14N 38°13' E 015°36'3 2.5
2017-May-18 15:10N 38°12' E 015°33'0 0.0
2017-May-18 14:58N 38°12' E 015°33'0 0.0
2017-May-18 13:58N 38°12' E 015°33'0 0.0
2017-May-18 13:28N 38°12' E 015°33'0 0.0
2017-May-18 12:58N 38°12' E 015°33'0 0.0
2017-May-18 12:28N 38°12' E 015°33'0 0.0
2017-May-18 11:58N 38°12' E 015°33'0 0.0
2017-May-18 11:28N 38°12' E 015°33'0 0.0
2017-May-18 10:58N 38°12' E 015°33'0 0.0
2017-May-18 10:28N 38°12' E 015°33'0 0.0
2017-May-18 09:58N 38°12' E 015°33'0 0.0
2017-May-18 09:28N 38°12' E 015°33'0 0.0
2017-May-18 08:58N 38°12' E 015°33'0 0.0
2017-May-18 08:28N 38°12' E 015°33'0 0.0
2017-May-18 07:58N 38°12' E 015°33'0 0.0
2017-May-18 07:28N 38°12' E 015°33'0 0.0
2017-May-18 06:58N 38°12' E 015°33'0 0.0
2017-May-18 06:28N 38°12' E 015°33'0 0.0
2017-May-18 05:58N 38°12' E 015°33'0 0.0
2017-May-18 05:28N 38°12' E 015°33'1 1.5
2017-May-18 05:00N 38°12' E 015°34'4 7.2
2017-May-18 04:30N 38°09' E 015°36'612.8
2017-May-18 04:00N 38°02' E 015°35'713.1
2017-May-18 03:30N 37°56' E 015°35'8213.5
2017-May-17 21:27N 36°35' E 015°16'916.3
2017-May-17 20:55N 36°29' E 015°10'1516.3
2017-May-17 20:01N 36°18' E 014°57'016.7
2017-May-17 20:00N 36°18' E 014°57'816.3
2017-May-17 19:30N 36°12' E 014°51'816.4
2017-May-17 19:00N 36°05' E 014°44'816.2
2017-May-17 18:31N 35°59' E 014°37'7 0.9
2017-May-17 11:00N 35°54' E 014°32'714.4
2017-May-17 10:30N 36°01' E 014°29'816.7
2017-May-17 10:00N 36°07' E 014°22'816.8
2017-May-17 09:31N 36°13' E 014°15'916.9
2017-May-17 09:00N 36°19' E 014°07'916.8
2017-May-17 08:30N 36°26' E 014°00'1116.6
2017-May-17 07:50N 36°34' E 013°51'516.6
2017-May-17 07:30N 36°38' E 013°46'916.9
2017-May-17 06:58N 36°44' E 013°38'25016.6
2017-May-16 15:51N 39°05' E 009°16'615.9
2017-May-16 15:30N 39°08' E 009°10'510.4
2017-May-16 15:00N 39°12' E 009°06'0 0.2
2017-May-16 13:59N 39°12' E 009°06'0 0.0
2017-May-16 13:29N 39°12' E 009°06'0 0.0
2017-May-16 12:59N 39°12' E 009°06'0 0.0
2017-May-16 12:29N 39°12' E 009°06'0 0.0
2017-May-16 11:59N 39°12' E 009°06'0 0.0
2017-May-16 11:29N 39°12' E 009°06'0 0.0
2017-May-16 10:59N 39°12' E 009°06'0 0.0
2017-May-16 10:29N 39°12' E 009°06'0 0.0
2017-May-16 09:59N 39°12' E 009°06'0 0.0
2017-May-16 09:26N 39°12' E 009°06'0 0.0
2017-May-16 08:59N 39°12' E 009°06'0 0.0
2017-May-16 08:29N 39°12' E 009°06'0 0.0
2017-May-16 07:59N 39°12' E 009°06'0 0.0
2017-May-16 07:29N 39°12' E 009°06'5 6.1
2017-May-16 06:37N 39°07' E 009°08'214.4
2017-May-16 06:30N 39°06' E 009°08'714.1
2017-May-16 06:00N 38°59' E 009°06'814.8
2017-May-16 05:29N 38°53' E 008°60'714.6
2017-May-16 05:00N 38°49' E 008°52'  

Dump ship's entire track history